sensor_id;sensor_type;location;lat;lon;timestamp;pressure;altitude;pressure_sealevel;temperature;humidity
43681;BME280;29281;50.356;30.894;2023-04-01T00:00:47;98861.82;;;8.58;100.00
43681;BME280;29281;50.356;30.894;2023-04-01T00:01:50;98862.30;;;8.63;100.00
43681;BME280;29281;50.356;30.894;2023-04-01T00:02:57;98860.97;;;8.68;100.00
43681;BME280;29281;50.356;30.894;2023-04-01T00:03:59;98868.55;;;8.62;100.00
43681;BME280;29281;50.356;30.894;2023-04-01T00:05:06;98863.50;;;8.59;100.00
43681;BME280;29281;50.356;30.894;2023-04-01T00:06:13;98866.51;;;8.65;100.00
43681;BME280;29281;50.356;30.894;2023-04-01T00:07:17;98863.94;;;8.75;100.00
43681;BME280;29281;50.356;30.894;2023-04-01T00:08:23;98868.07;;;8.68;100.00
43681;BME280;29281;50.356;30.894;2023-04-01T00:09:29;98868.31;;;8.65;100.00
43681;BME280;29281;50.356;30.894;2023-04-01T00:10:33;98870.59;;;8.58;100.00
43681;BME280;29281;50.356;30.894;2023-04-01T00:11:36;98870.39;;;8.50;100.00
43681;BME280;29281;50.356;30.894;2023-04-01T00:12:39;98865.55;;;8.66;100.00
43681;BME280;29281;50.356;30.894;2023-04-01T00:13:43;98872.16;;;8.61;100.00
43681;BME280;29281;50.356;30.894;2023-04-01T00:14:45;98866.75;;;8.62;100.00
43681;BME280;29281;50.356;30.894;2023-04-01T00:15:49;98869.64;;;8.59;100.00
43681;BME280;29281;50.356;30.894;2023-04-01T00:16:53;98868.92;;;8.57;100.00
43681;BME280;29281;50.356;30.894;2023-04-01T00:17:57;98867.47;;;8.64;100.00
43681;BME280;29281;50.356;30.894;2023-04-01T00:19:03;98867.71;;;8.61;100.00
43681;BME280;29281;50.356;30.894;2023-04-01T00:20:06;98859.89;;;8.60;100.00
43681;BME280;29281;50.356;30.894;2023-04-01T00:21:10;98864.83;;;8.64;100.00
43681;BME280;29281;50.356;30.894;2023-04-01T00:22:13;98865.66;;;8.65;100.00
43681;BME280;29281;50.356;30.894;2023-04-01T00:23:17;98854.60;;;8.60;100.00
43681;BME280;29281;50.356;30.894;2023-04-01T00:24:21;98859.41;;;8.66;100.00
43681;BME280;29281;50.356;30.894;2023-04-01T00:25:24;98859.41;;;8.66;100.00
43681;BME280;29281;50.356;30.894;2023-04-01T00:26:28;98855.28;;;8.73;100.00
43681;BME280;29281;50.356;30.894;2023-04-01T00:27:31;98854.67;;;8.80;100.00
43681;BME280;29281;50.356;30.894;2023-04-01T00:28:35;98858.53;;;8.76;100.00
43681;BME280;29281;50.356;30.894;2023-04-01T00:29:41;98854.15;;;8.87;100.00
43681;BME280;29281;50.356;30.894;2023-04-01T00:30:44;98862.69;;;8.90;100.00
43681;BME280;29281;50.356;30.894;2023-04-01T00:31:48;98861.53;;;8.83;100.00
43681;BME280;29281;50.356;30.894;2023-04-01T00:32:52;98858.76;;;8.85;100.00
43681;BME280;29281;50.356;30.894;2023-04-01T00:33:56;98857.64;;;8.87;100.00
43681;BME280;29281;50.356;30.894;2023-04-01T00:34:59;98865.02;;;8.84;100.00
43681;BME280;29281;50.356;30.894;2023-04-01T00:36:06;98865.58;;;8.87;100.00
43681;BME280;29281;50.356;30.894;2023-04-01T00:37:10;98859.84;;;8.82;100.00
43681;BME280;29281;50.356;30.894;2023-04-01T00:38:15;98860.09;;;8.79;100.00
43681;BME280;29281;50.356;30.894;2023-04-01T00:39:20;98860.62;;;8.62;100.00
43681;BME280;29281;50.356;30.894;2023-04-01T00:40:29;98855.68;;;8.68;100.00
43681;BME280;29281;50.356;30.894;2023-04-01T00:41:32;98854.32;;;8.74;100.00
43681;BME280;29281;50.356;30.894;2023-04-01T00:42:35;98855.71;;;8.89;100.00
43681;BME280;29281;50.356;30.894;2023-04-01T00:43:39;98857.34;;;9.01;100.00
43681;BME280;29281;50.356;30.894;2023-04-01T00:44:45;98850.83;;;9.05;100.00
43681;BME280;29281;50.356;30.894;2023-04-01T00:45:49;98861.55;;;9.04;100.00
43681;BME280;29281;50.356;30.894;2023-04-01T00:46:53;98862.61;;;9.12;100.00
43681;BME280;29281;50.356;30.894;2023-04-01T00:47:56;98861.67;;;9.02;100.00
43681;BME280;29281;50.356;30.894;2023-04-01T00:49:02;98861.00;;;8.89;100.00
43681;BME280;29281;50.356;30.894;2023-04-01T00:50:06;98864.62;;;8.88;100.00
43681;BME280;29281;50.356;30.894;2023-04-01T00:51:17;98859.98;;;9.01;100.00
43681;BME280;29281;50.356;30.894;2023-04-01T00:52:19;98861.30;;;9.07;100.00
43681;BME280;29281;50.356;30.894;2023-04-01T00:53:26;98855.63;;;9.11;100.00
43681;BME280;29281;50.356;30.894;2023-04-01T00:54:32;98859.73;;;9.04;100.00
43681;BME280;29281;50.356;30.894;2023-04-01T00:55:37;98859.00;;;9.13;100.00
43681;BME280;29281;50.356;30.894;2023-04-01T00:56:45;98856.09;;;9.16;100.00
43681;BME280;29281;50.356;30.894;2023-04-01T00:57:55;98859.96;;;9.12;100.00
43681;BME280;29281;50.356;30.894;2023-04-01T00:59:00;98851.05;;;9.13;100.00
43681;BME280;29281;50.356;30.894;2023-04-01T01:00:05;98856.41;;;9.23;100.00
43681;BME280;29281;50.356;30.894;2023-04-01T01:01:09;98855.19;;;9.27;100.00
43681;BME280;29281;50.356;30.894;2023-04-01T01:02:13;98853.76;;;9.23;100.00
43681;BME280;29281;50.356;30.894;2023-04-01T01:03:16;98852.17;;;9.32;100.00
43681;BME280;29281;50.356;30.894;2023-04-01T01:04:31;98852.33;;;9.19;100.00
43681;BME280;29281;50.356;30.894;2023-04-01T01:05:30;98854.98;;;9.19;100.00
43681;BME280;29281;50.356;30.894;2023-04-01T01:10:17;98854.66;;;9.33;100.00
43681;BME280;29281;50.356;30.894;2023-04-01T01:11:29;98852.17;;;9.32;100.00
43681;BME280;29281;50.356;30.894;2023-04-01T01:14:07;98854.53;;;9.35;100.00
43681;BME280;29281;50.356;30.894;2023-04-01T01:16:06;98858.73;;;9.37;100.00
43681;BME280;29281;50.356;30.894;2023-04-01T01:19:48;98852.34;;;9.40;100.00
43681;BME280;29281;50.356;30.894;2023-04-01T01:24:41;98863.78;;;9.40;100.00
43681;BME280;29281;50.356;30.894;2023-04-01T01:27:09;98863.84;;;9.50;100.00
43681;BME280;29281;50.356;30.894;2023-04-01T01:30:39;98861.14;;;9.40;100.00
43681;BME280;29281;50.356;30.894;2023-04-01T01:34:22;98865.84;;;9.37;100.00
43681;BME280;29281;50.356;30.894;2023-04-01T01:36:45;98865.13;;;9.35;100.00
43681;BME280;29281;50.356;30.894;2023-04-01T01:37:56;98871.52;;;9.32;100.00
43681;BME280;29281;50.356;30.894;2023-04-01T01:39:01;98867.59;;;9.27;100.00
43681;BME280;29281;50.356;30.894;2023-04-01T01:40:07;98862.48;;;9.35;100.00
43681;BME280;29281;50.356;30.894;2023-04-01T01:41:16;98866.81;;;9.36;100.00
43681;BME280;29281;50.356;30.894;2023-04-01T01:42:22;98874.05;;;9.34;100.00
43681;BME280;29281;50.356;30.894;2023-04-01T01:43:30;98863.45;;;9.34;100.00
43681;BME280;29281;50.356;30.894;2023-04-01T01:44:35;98875.30;;;9.30;100.00
43681;BME280;29281;50.356;30.894;2023-04-01T01:45:43;98870.12;;;9.28;100.00
43681;BME280;29281;50.356;30.894;2023-04-01T01:46:46;98870.12;;;9.28;100.00
43681;BME280;29281;50.356;30.894;2023-04-01T01:47:52;98876.38;;;9.27;100.00
43681;BME280;29281;50.356;30.894;2023-04-01T01:48:59;98870.24;;;9.27;100.00
43681;BME280;29281;50.356;30.894;2023-04-01T01:50:03;98867.34;;;9.30;100.00
43681;BME280;29281;50.356;30.894;2023-04-01T01:51:07;98871.67;;;9.31;100.00
43681;BME280;29281;50.356;30.894;2023-04-01T01:52:12;98869.71;;;9.33;100.00
43681;BME280;29281;50.356;30.894;2023-04-01T01:53:16;98865.91;;;9.26;100.00
43681;BME280;29281;50.356;30.894;2023-04-01T01:54:20;98869.66;;;9.23;100.00
43681;BME280;29281;50.356;30.894;2023-04-01T01:56:29;98865.45;;;9.21;100.00
43681;BME280;29281;50.356;30.894;2023-04-01T01:57:36;98870.87;;;9.19;100.00
43681;BME280;29281;50.356;30.894;2023-04-01T01:58:42;98864.86;;;9.17;100.00
43681;BME280;29281;50.356;30.894;2023-04-01T01:59:49;98874.36;;;9.20;100.00
43681;BME280;29281;50.356;30.894;2023-04-01T02:00:59;98878.56;;;9.22;100.00
43681;BME280;29281;50.356;30.894;2023-04-01T02:02:05;98878.19;;;9.27;100.00
43681;BME280;29281;50.356;30.894;2023-04-01T02:03:11;98875.67;;;9.25;100.00
43681;BME280;29281;50.356;30.894;2023-04-01T02:04:15;98878.66;;;9.32;100.00
43681;BME280;29281;50.356;30.894;2023-04-01T02:05:23;98872.77;;;9.28;100.00
43681;BME280;29281;50.356;30.894;2023-04-01T02:06:32;98875.01;;;9.33;100.00
43681;BME280;29281;50.356;30.894;2023-04-01T02:07:37;98880.06;;;9.36;100.00
43681;BME280;29281;50.356;30.894;2023-04-01T02:09:54;98878.78;;;9.30;100.00
43681;BME280;29281;50.356;30.894;2023-04-01T02:11:00;98880.06;;;9.36;100.00
43681;BME280;29281;50.356;30.894;2023-04-01T02:12:08;98879.09;;;9.37;100.00
43681;BME280;29281;50.356;30.894;2023-04-01T02:13:18;98873.20;;;9.33;100.00
43681;BME280;29281;50.356;30.894;2023-04-01T02:14:24;98873.36;;;9.32;100.00
43681;BME280;29281;50.356;30.894;2023-04-01T02:15:32;98880.19;;;9.34;100.00
43681;BME280;29281;50.356;30.894;2023-04-01T02:17:49;98878.38;;;9.35;100.00
43681;BME280;29281;50.356;30.894;2023-04-01T02:18:55;98879.94;;;9.37;100.00
43681;BME280;29281;50.356;30.894;2023-04-01T02:20:16;98882.95;;;9.33;100.00
43681;BME280;29281;50.356;30.894;2023-04-01T02:21:18;98880.72;;;9.28;100.00
43681;BME280;29281;50.356;30.894;2023-04-01T02:22:24;98876.56;;;9.35;100.00
43681;BME280;29281;50.356;30.894;2023-04-01T02:23:28;98877.28;;;9.37;100.00
43681;BME280;29281;50.356;30.894;2023-04-01T02:24:31;98875.09;;;9.42;100.00
43681;BME280;29281;50.356;30.894;2023-04-01T02:25:36;98877.38;;;9.47;100.00
43681;BME280;29281;50.356;30.894;2023-04-01T02:26:42;98879.02;;;9.48;100.00
43681;BME280;29281;50.356;30.894;2023-04-01T02:27:46;98880.45;;;9.52;100.00
43681;BME280;29281;50.356;30.894;2023-04-01T02:28:49;98876.58;;;9.56;100.00
43681;BME280;29281;50.356;30.894;2023-04-01T02:29:54;98878.00;;;9.39;100.00
43681;BME280;29281;50.356;30.894;2023-04-01T02:30:57;98881.30;;;9.52;100.00
43681;BME280;29281;50.356;30.894;2023-04-01T02:32:04;98873.08;;;9.35;100.00
43681;BME280;29281;50.356;30.894;2023-04-01T02:33:11;98876.66;;;9.45;100.00
43681;BME280;29281;50.356;30.894;2023-04-01T02:34:15;98877.38;;;9.47;100.00
43681;BME280;29281;50.356;30.894;2023-04-01T02:35:17;98869.20;;;9.39;100.00
43681;BME280;29281;50.356;30.894;2023-04-01T02:36:21;98872.45;;;9.42;100.00
43681;BME280;29281;50.356;30.894;2023-04-01T02:37:23;98871.23;;;9.46;100.00
43681;BME280;29281;50.356;30.894;2023-04-01T02:38:27;98872.75;;;9.49;100.00
43681;BME280;29281;50.356;30.894;2023-04-01T02:39:31;98871.23;;;9.46;100.00
43681;BME280;29281;50.356;30.894;2023-04-01T02:40:42;98879.73;;;9.50;100.00
43681;BME280;29281;50.356;30.894;2023-04-01T02:41:45;98870.23;;;9.47;100.00
43681;BME280;29281;50.356;30.894;2023-04-01T02:42:50;98875.53;;;9.47;100.00
43681;BME280;29281;50.356;30.894;2023-04-01T02:43:56;98874.56;;;9.48;100.00
43681;BME280;29281;50.356;30.894;2023-04-01T02:45:01;98875.99;;;9.52;100.00
43681;BME280;29281;50.356;30.894;2023-04-01T02:46:04;98874.77;;;9.57;100.00
43681;BME280;29281;50.356;30.894;2023-04-01T02:47:07;98879.86;;;9.48;100.00
43681;BME280;29281;50.356;30.894;2023-04-01T02:48:10;98878.59;;;9.43;100.00
43681;BME280;29281;50.356;30.894;2023-04-01T02:49:17;98882.20;;;9.42;100.00
43681;BME280;29281;50.356;30.894;2023-04-01T02:50:23;98872.50;;;9.52;100.00
43681;BME280;29281;50.356;30.894;2023-04-01T02:51:26;98885.25;;;9.58;100.00
43681;BME280;29281;50.356;30.894;2023-04-01T02:52:29;98886.29;;;9.46;100.00
43681;BME280;29281;50.356;30.894;2023-04-01T02:53:34;98888.41;;;9.52;100.00
43681;BME280;29281;50.356;30.894;2023-04-01T02:54:38;98877.09;;;9.50;100.00
43681;BME280;29281;50.356;30.894;2023-04-01T02:55:42;98881.11;;;9.44;100.00
43681;BME280;29281;50.356;30.894;2023-04-01T02:56:45;98879.44;;;9.43;100.00
43681;BME280;29281;50.356;30.894;2023-04-01T02:57:48;98879.31;;;9.45;100.00
43681;BME280;29281;50.356;30.894;2023-04-01T02:58:52;98880.14;;;9.45;100.00
43681;BME280;29281;50.356;30.894;2023-04-01T02:59:55;98878.59;;;9.43;100.00
43681;BME280;29281;50.356;30.894;2023-04-01T03:00:59;98878.47;;;9.44;100.00
43681;BME280;29281;50.356;30.894;2023-04-01T03:02:02;98879.61;;;9.51;100.00
43681;BME280;29281;50.356;30.894;2023-04-01T03:03:07;98877.50;;;9.45;100.00
43681;BME280;29281;50.356;30.894;2023-04-01T03:04:13;98880.20;;;9.55;100.00
43681;BME280;29281;50.356;30.894;2023-04-01T03:05:19;98889.95;;;9.55;100.00
43681;BME280;29281;50.356;30.894;2023-04-01T03:06:22;98882.01;;;9.55;100.00
43681;BME280;29281;50.356;30.894;2023-04-01T03:07:28;98887.31;;;9.55;100.00
43681;BME280;29281;50.356;30.894;2023-04-01T03:08:30;98881.37;;;9.62;100.00
43681;BME280;29281;50.356;30.894;2023-04-01T03:09:34;98884.84;;;9.63;100.00
43681;BME280;29281;50.356;30.894;2023-04-01T03:10:38;98882.52;;;9.48;100.00
43681;BME280;29281;50.356;30.894;2023-04-01T03:11:42;98879.36;;;9.55;100.00
43681;BME280;29281;50.356;30.894;2023-04-01T03:12:47;98884.78;;;9.53;100.00
43681;BME280;29281;50.356;30.894;2023-04-01T03:13:51;98884.07;;;9.51;100.00
43681;BME280;29281;50.356;30.894;2023-04-01T03:14:55;98886.09;;;9.59;100.00
43681;BME280;29281;50.356;30.894;2023-04-01T03:16:00;98882.92;;;9.44;100.00
43681;BME280;29281;50.356;30.894;2023-04-01T03:17:04;98880.98;;;9.46;100.00
43681;BME280;29281;50.356;30.894;2023-04-01T03:18:09;98883.48;;;9.47;100.00
43681;BME280;29281;50.356;30.894;2023-04-01T03:19:13;98883.23;;;9.50;100.00
43681;BME280;29281;50.356;30.894;2023-04-01T03:20:16;98875.53;;;9.47;100.00
43681;BME280;29281;50.356;30.894;2023-04-01T03:21:20;98880.02;;;9.47;100.00
43681;BME280;29281;50.356;30.894;2023-04-01T03:22:24;98887.81;;;9.48;100.00
43681;BME280;29281;50.356;30.894;2023-04-01T03:23:27;98887.97;;;9.47;100.00
43681;BME280;29281;50.356;30.894;2023-04-01T03:24:31;98885.32;;;9.47;100.00
43681;BME280;29281;50.356;30.894;2023-04-01T03:25:36;98883.36;;;9.49;100.00
43681;BME280;29281;50.356;30.894;2023-04-01T03:26:41;98889.78;;;9.46;100.00
43681;BME280;29281;50.356;30.894;2023-04-01T03:27:44;98886.41;;;9.44;100.00
43681;BME280;29281;50.356;30.894;2023-04-01T03:28:49;98890.91;;;9.33;100.00
43681;BME280;29281;50.356;30.894;2023-04-01T03:29:59;98887.13;;;9.46;100.00
43681;BME280;29281;50.356;30.894;2023-04-01T03:31:03;98888.09;;;9.45;100.00
43681;BME280;29281;50.356;30.894;2023-04-01T03:32:09;98882.08;;;9.43;100.00
43681;BME280;29281;50.356;30.894;2023-04-01T03:33:13;98892.02;;;9.51;100.00
43681;BME280;29281;50.356;30.894;2023-04-01T03:34:16;98894.42;;;9.54;100.00
43681;BME280;29281;50.356;30.894;2023-04-01T03:35:20;98886.34;;;9.56;100.00
43681;BME280;29281;50.356;30.894;2023-04-01T03:36:24;98900.56;;;9.55;100.00
43681;BME280;29281;50.356;30.894;2023-04-01T03:37:27;98891.18;;;9.50;100.00
43681;BME280;29281;50.356;30.894;2023-04-01T03:38:31;98896.05;;;9.45;100.00
43681;BME280;29281;50.356;30.894;2023-04-01T03:39:34;98895.77;;;9.48;100.00
43681;BME280;29281;50.356;30.894;2023-04-01T03:40:41;98890.03;;;9.43;100.00
43681;BME280;29281;50.356;30.894;2023-04-01T03:41:46;98891.96;;;9.41;100.00
43681;BME280;29281;50.356;30.894;2023-04-01T03:42:50;98893.52;;;9.44;100.00
43681;BME280;29281;50.356;30.894;2023-04-01T03:43:55;98888.02;;;9.57;100.00
43681;BME280;29281;50.356;30.894;2023-04-01T03:44:58;98888.28;;;9.53;100.00
43681;BME280;29281;50.356;30.894;2023-04-01T03:46:03;98896.48;;;9.50;100.00
43681;BME280;29281;50.356;30.894;2023-04-01T03:47:07;98892.14;;;9.49;100.00
43681;BME280;29281;50.356;30.894;2023-04-01T03:48:12;98896.60;;;9.49;100.00
43681;BME280;29281;50.356;30.894;2023-04-01T03:49:17;98894.67;;;9.51;100.00
43681;BME280;29281;50.356;30.894;2023-04-01T03:50:21;98889.50;;;9.49;100.00
43681;BME280;29281;50.356;30.894;2023-04-01T03:51:24;98897.02;;;9.44;100.00
43681;BME280;29281;50.356;30.894;2023-04-01T03:52:29;98891.71;;;9.44;100.00
43681;BME280;29281;50.356;30.894;2023-04-01T03:53:33;98897.39;;;9.40;100.00
43681;BME280;29281;50.356;30.894;2023-04-01T03:54:39;98897.64;;;9.37;100.00
43681;BME280;29281;50.356;30.894;2023-04-01T03:55:43;98892.93;;;9.40;100.00
43681;BME280;29281;50.356;30.894;2023-04-01T03:56:45;98898.57;;;9.47;100.00
43681;BME280;29281;50.356;30.894;2023-04-01T03:57:48;98895.33;;;9.43;100.00
43681;BME280;29281;50.356;30.894;2023-04-01T03:58:52;98897.64;;;9.37;100.00
43681;BME280;29281;50.356;30.894;2023-04-01T03:59:56;98909.14;;;9.26;100.00
43681;BME280;29281;50.356;30.894;2023-04-01T04:00:59;98893.55;;;9.33;100.00
43681;BME280;29281;50.356;30.894;2023-04-01T04:02:03;98897.27;;;9.41;100.00
43681;BME280;29281;50.356;30.894;2023-04-01T04:03:09;98903.72;;;9.48;100.00
43681;BME280;29281;50.356;30.894;2023-04-01T04:04:15;98899.47;;;9.57;100.00
43681;BME280;29281;50.356;30.894;2023-04-01T04:05:19;98905.78;;;9.66;100.00
43681;BME280;29281;50.356;30.894;2023-04-01T04:06:23;98904.82;;;9.67;100.00
43681;BME280;29281;50.356;30.894;2023-04-01T04:07:27;98905.78;;;9.66;100.00
43681;BME280;29281;50.356;30.894;2023-04-01T04:08:33;98904.05;;;9.55;100.00
43681;BME280;29281;50.356;30.894;2023-04-01T04:09:36;98910.66;;;9.61;100.00
43681;BME280;29281;50.356;30.894;2023-04-01T04:10:40;98907.16;;;9.60;100.00
43681;BME280;29281;50.356;30.894;2023-04-01T04:11:43;98904.77;;;9.57;100.00
43681;BME280;29281;50.356;30.894;2023-04-01T04:12:48;98904.00;;;9.45;100.00
43681;BME280;29281;50.356;30.894;2023-04-01T04:13:53;98908.77;;;9.51;100.00
43681;BME280;29281;50.356;30.894;2023-04-01T04:14:58;98909.23;;;9.57;100.00
43681;BME280;29281;50.356;30.894;2023-04-01T04:16:01;98903.92;;;9.57;100.00
43681;BME280;29281;50.356;30.894;2023-04-01T04:17:09;98909.48;;;9.53;100.00
43681;BME280;29281;50.356;30.894;2023-04-01T04:18:33;98914.41;;;9.58;100.00
43681;BME280;29281;50.356;30.894;2023-04-01T04:19:36;98911.22;;;9.64;100.00
43681;BME280;29281;50.356;30.894;2023-04-01T04:20:43;98914.33;;;9.69;100.00
43681;BME280;29281;50.356;30.894;2023-04-01T04:21:50;98914.92;;;9.73;100.00
43681;BME280;29281;50.356;30.894;2023-04-01T04:22:53;98915.55;;;9.65;100.00
43681;BME280;29281;50.356;30.894;2023-04-01T04:23:56;98911.80;;;9.68;100.00
43681;BME280;29281;50.356;30.894;2023-04-01T04:25:01;98917.11;;;9.68;100.00
43681;BME280;29281;50.356;30.894;2023-04-01T04:26:06;98927.70;;;9.68;100.00
43681;BME280;29281;50.356;30.894;2023-04-01T04:27:12;98922.78;;;9.63;100.00
43681;BME280;29281;50.356;30.894;2023-04-01T04:28:16;98920.14;;;9.63;100.00
43681;BME280;29281;50.356;30.894;2023-04-01T04:29:19;98918.86;;;9.58;100.00
43681;BME280;29281;50.356;30.894;2023-04-01T04:30:22;98926.69;;;9.59;100.00
43681;BME280;29281;50.356;30.894;2023-04-01T04:31:25;98922.78;;;9.63;100.00
43681;BME280;29281;50.356;30.894;2023-04-01T04:32:31;98920.84;;;9.65;100.00
43681;BME280;29281;50.356;30.894;2023-04-01T04:33:36;98926.48;;;9.72;100.00
43681;BME280;29281;50.356;30.894;2023-04-01T04:34:40;98928.17;;;9.73;100.00
43681;BME280;29281;50.356;30.894;2023-04-01T04:35:43;98927.63;;;9.79;100.00
43681;BME280;29281;50.356;30.894;2023-04-01T04:36:46;98920.59;;;9.68;100.00
43681;BME280;29281;50.356;30.894;2023-04-01T04:37:55;98928.80;;;9.65;100.00
43681;BME280;29281;50.356;30.894;2023-04-01T04:38:59;98931.86;;;9.61;100.00
43681;BME280;29281;50.356;30.894;2023-04-01T04:40:08;98934.31;;;9.73;100.00
43681;BME280;29281;50.356;30.894;2023-04-01T04:41:16;98940.58;;;9.72;100.00
43681;BME280;29281;50.356;30.894;2023-04-01T04:42:19;98936.00;;;9.74;100.00
43681;BME280;29281;50.356;30.894;2023-04-01T04:43:23;98935.61;;;9.58;100.00
43681;BME280;29281;50.356;30.894;2023-04-01T04:44:27;98938.12;;;9.60;100.00
43681;BME280;29281;50.356;30.894;2023-04-01T04:45:31;98934.69;;;9.69;100.00
43681;BME280;29281;50.356;30.894;2023-04-01T04:46:35;98939.41;;;9.65;100.00
43681;BME280;29281;50.356;30.894;2023-04-01T04:47:41;98931.73;;;9.62;100.00
43681;BME280;29281;50.356;30.894;2023-04-01T04:48:45;98939.44;;;9.33;100.00
43681;BME280;29281;50.356;30.894;2023-04-01T04:49:50;98933.27;;;9.44;100.00
43681;BME280;29281;50.356;30.894;2023-04-01T04:50:53;98931.58;;;9.64;100.00
43681;BME280;29281;50.356;30.894;2023-04-01T04:51:58;98930.83;;;9.73;100.00
43681;BME280;29281;50.356;30.894;2023-04-01T04:53:02;98935.46;;;9.80;100.00
43681;BME280;29281;50.356;30.894;2023-04-01T04:54:06;98923.97;;;9.91;100.00
43681;BME280;29281;50.356;30.894;2023-04-01T04:55:14;98927.50;;;10.01;100.00
43681;BME280;29281;50.356;30.894;2023-04-01T04:56:20;98919.22;;;9.95;100.00
43681;BME280;29281;50.356;30.894;2023-04-01T04:57:31;98919.41;;;10.03;100.00
43681;BME280;29281;50.356;30.894;2023-04-01T04:58:38;98928.47;;;10.00;100.00
43681;BME280;29281;50.356;30.894;2023-04-01T04:59:47;98924.34;;;9.86;100.00
43681;BME280;29281;50.356;30.894;2023-04-01T05:00:53;98920.98;;;9.84;100.00
43681;BME280;29281;50.356;30.894;2023-04-01T05:02:01;98919.50;;;9.92;100.00
43681;BME280;29281;50.356;30.894;2023-04-01T05:03:06;98920.98;;;9.84;100.00
43681;BME280;29281;50.356;30.894;2023-04-01T05:04:11;98911.80;;;9.88;100.00
43681;BME280;29281;50.356;30.894;2023-04-01T05:05:14;98919.50;;;9.92;100.00
43681;BME280;29281;50.356;30.894;2023-04-01T05:06:21;98913.06;;;9.94;100.00
43681;BME280;29281;50.356;30.894;2023-04-01T05:07:25;98921.99;;;9.93;100.00
43681;BME280;29281;50.356;30.894;2023-04-01T05:08:28;98917.28;;;9.97;100.00
43681;BME280;29281;50.356;30.894;2023-04-01T05:09:32;98918.31;;;10.05;100.00
43681;BME280;29281;50.356;30.894;2023-04-01T05:10:39;98910.91;;;10.09;100.00
43681;BME280;29281;50.356;30.894;2023-04-01T05:11:42;98909.64;;;10.03;100.00
43681;BME280;29281;50.356;30.894;2023-04-01T05:12:45;98913.87;;;9.85;100.00
43681;BME280;29281;50.356;30.894;2023-04-01T05:13:50;98905.70;;;9.98;100.00
43681;BME280;29281;50.356;30.894;2023-04-01T05:14:54;98912.55;;;10.00;100.00
43681;BME280;29281;50.356;30.894;2023-04-01T05:15:58;98914.11;;;10.03;100.00
43681;BME280;29281;50.356;30.894;2023-04-01T05:17:02;98904.12;;;10.16;100.00
43681;BME280;29281;50.356;30.894;2023-04-01T05:18:06;98908.94;;;10.22;100.00
43681;BME280;29281;50.356;30.894;2023-04-01T05:19:10;98909.67;;;10.34;100.00
43681;BME280;29281;50.356;30.894;2023-04-01T05:20:16;98915.45;;;10.48;100.00
43681;BME280;29281;50.356;30.894;2023-04-01T05:21:20;98913.04;;;10.36;100.00
43681;BME280;29281;50.356;30.894;2023-04-01T05:22:23;98923.56;;;10.56;100.00
43681;BME280;29281;50.356;30.894;2023-04-01T05:23:28;98917.08;;;10.40;100.00
43681;BME280;29281;50.356;30.894;2023-04-01T05:24:32;98914.41;;;10.30;100.00
43681;BME280;29281;50.356;30.894;2023-04-01T05:25:37;98912.35;;;10.43;100.00
43681;BME280;29281;50.356;30.894;2023-04-01T05:26:41;98914.23;;;10.62;100.00
43681;BME280;29281;50.356;30.894;2023-04-01T05:27:44;98914.67;;;10.67;100.00
43681;BME280;29281;50.356;30.894;2023-04-01T05:28:50;98910.09;;;10.79;100.00
43681;BME280;29281;50.356;30.894;2023-04-01T05:29:55;98913.86;;;10.86;100.00
43681;BME280;29281;50.356;30.894;2023-04-01T05:31:04;98916.81;;;10.83;100.00
43681;BME280;29281;50.356;30.894;2023-04-01T05:32:13;98914.83;;;10.85;100.00
43681;BME280;29281;50.356;30.894;2023-04-01T05:33:19;98911.91;;;10.88;100.00
43681;BME280;29281;50.356;30.894;2023-04-01T05:34:22;98913.01;;;10.76;100.00
43681;BME280;29281;50.356;30.894;2023-04-01T05:35:25;98914.42;;;10.89;100.00
43681;BME280;29281;50.356;30.894;2023-04-01T05:36:28;98909.95;;;10.80;100.00
43681;BME280;29281;50.356;30.894;2023-04-01T05:37:33;98918.44;;;10.65;100.00
43681;BME280;29281;50.356;30.894;2023-04-01T05:38:38;98911.90;;;10.78;100.00
43681;BME280;29281;50.356;30.894;2023-04-01T05:39:45;98912.48;;;10.91;100.00
43681;BME280;29281;50.356;30.894;2023-04-01T05:40:48;98905.64;;;11.18;100.00
43681;BME280;29281;50.356;30.894;2023-04-01T05:41:52;98904.41;;;11.12;100.00
43681;BME280;29281;50.356;30.894;2023-04-01T05:42:54;98910.13;;;10.98;100.00
43681;BME280;29281;50.356;30.894;2023-04-01T05:43:58;98905.35;;;11.02;100.00
43681;BME280;29281;50.356;30.894;2023-04-01T05:45:18;98907.47;;;10.98;100.00
43681;BME280;29281;50.356;30.894;2023-04-01T05:46:41;98919.85;;;10.69;100.00
43681;BME280;29281;50.356;30.894;2023-04-01T05:47:50;98913.27;;;10.63;100.00
43681;BME280;29281;50.356;30.894;2023-04-01T05:48:54;98932.50;;;10.55;100.00
43681;BME280;29281;50.356;30.894;2023-04-01T05:50:01;98921.60;;;10.49;100.00
43681;BME280;29281;50.356;30.894;2023-04-01T05:51:05;98924.65;;;10.44;100.00
43681;BME280;29281;50.356;30.894;2023-04-01T05:52:12;98927.75;;;10.49;100.00
43681;BME280;29281;50.356;30.894;2023-04-01T05:53:18;98918.63;;;10.42;100.00
43681;BME280;29281;50.356;30.894;2023-04-01T05:54:21;98935.76;;;10.29;100.00
43681;BME280;29281;50.356;30.894;2023-04-01T05:55:26;98922.84;;;10.45;100.00
43681;BME280;29281;50.356;30.894;2023-04-01T05:56:30;98923.75;;;10.65;100.00
43681;BME280;29281;50.356;30.894;2023-04-01T05:57:34;98930.48;;;10.69;100.00
43681;BME280;29281;50.356;30.894;2023-04-01T05:58:39;98926.52;;;10.53;100.00
43681;BME280;29281;50.356;30.894;2023-04-01T05:59:43;98927.77;;;10.59;100.00
43681;BME280;29281;50.356;30.894;2023-04-01T06:00:46;98922.20;;;10.62;100.00
43681;BME280;29281;50.356;30.894;2023-04-01T06:01:52;98923.30;;;10.60;100.00
43681;BME280;29281;50.356;30.894;2023-04-01T06:02:59;98922.06;;;10.64;100.00